Time;durP1;ratioP1;P1;durP2;ratioP2;P2;SDS_P1;SDS_P2;PMS_P1;PMS_P2;Temp;Humidity;BMP_temperature;BMP_pressure;BME280_temperature;BME280_humidity;BME280_pressure;Samples;Min_cycle;Max_cycle;Signal;HPM_P1;HPM_P2
2023/07/06 00:00:40;;;;;;;;;1.00;1.00;;;;;22.60;66.45;100407.19;5034003;28;45782;-72
2023/07/06 00:03:06;;;;;;;;;1.33;1.33;;;;;22.67;66.08;100407.97;5033122;28;45352;-72
2023/07/06 00:05:31;;;;;;;;;1.00;1.00;;;;;22.66;66.04;100420.41;5017951;28;46491;-72
2023/07/06 00:07:57;;;;;;;;;1.00;1.00;;;;;22.73;65.83;100413.16;5025804;28;45803;-72
2023/07/06 00:10:23;;;;;;;;;1.00;1.00;;;;;22.75;65.41;100403.34;5020135;28;45495;-72
2023/07/06 00:12:49;;;;;;;;;2.00;2.00;;;;;22.69;65.96;100401.69;5037475;28;45625;-73
2023/07/06 00:15:14;;;;;;;;;2.00;2.00;;;;;22.73;65.39;100402.50;5036916;28;45442;-72
2023/07/06 00:17:40;;;;;;;;;2.00;0.00;;;;;22.81;65.24;100390.75;5024819;28;45456;-72
2023/07/06 00:20:10;;;;;;;;;2.33;2.00;;;;;22.91;65.02;100383.41;5017784;28;45364;-72
2023/07/06 00:22:36;;;;;;;;;2.00;0.67;;;;;22.96;65.10;100372.66;5018094;28;45392;-72
2023/07/06 00:25:02;;;;;;;;;1.33;1.00;;;;;22.98;65.11;100370.84;5017508;28;45435;-72
2023/07/06 00:27:29;;;;;;;;;2.00;1.67;;;;;22.97;65.52;100369.09;5016474;28;45318;-72
2023/07/06 00:30:08;;;;;;;;;3.00;2.00;;;;;22.94;64.80;100372.72;5017418;28;45403;-72
2023/07/06 00:32:33;;;;;;;;;2.00;1.00;;;;;22.89;65.09;100368.41;5018095;28;45615;-73
2023/07/06 00:35:00;;;;;;;;;2.00;2.00;;;;;22.86;64.94;100360.47;5032558;28;46086;-73
2023/07/06 00:37:26;;;;;;;;;2.00;1.00;;;;;22.77;64.99;100357.09;5017649;28;45496;-72
2023/07/06 00:39:52;;;;;;;;;3.00;1.00;;;;;22.72;65.13;100361.69;5032392;28;45781;-72
2023/07/06 00:42:22;;;;;;;;;2.00;1.00;;;;;22.76;65.01;100373.13;5029911;28;45568;-72
2023/07/06 00:44:57;;;;;;;;;1.00;1.00;;;;;22.78;65.12;100372.19;5035840;28;46229;-73
2023/07/06 00:47:52;;;;;;;;;2.00;1.00;;;;;22.70;65.86;100365.28;5034287;28;45703;-72
2023/07/06 00:50:21;;;;;;;;;1.00;1.00;;;;;22.66;65.89;100363.59;5007896;28;45215;-72
2023/07/06 00:52:54;;;;;;;;;2.00;2.00;;;;;22.60;65.79;100361.94;5016197;28;45554;-71
2023/07/06 00:55:25;;;;;;;;;2.33;1.00;;;;;22.53;65.73;100345.25;5017149;28;45202;-73
2023/07/06 00:57:59;;;;;;;;;1.00;1.00;;;;;22.53;66.13;100347.03;5015563;28;45439;-73
2023/07/06 01:00:25;;;;;;;;;4.00;4.00;;;;;22.49;65.18;100348.88;5029351;28;45276;-73
2023/07/06 01:02:53;;;;;;;;;5.00;5.00;;;;;22.52;64.93;100346.16;5020472;28;45431;-72
2023/07/06 01:05:23;;;;;;;;;7.67;6.00;;;;;22.43;64.26;100322.41;5016984;28;46174;-73
2023/07/06 01:07:51;;;;;;;;;9.00;7.00;;;;;22.51;63.98;100341.75;5025499;28;45434;-72
2023/07/06 01:10:18;;;;;;;;;6.00;6.00;;;;;22.55;63.82;100331.91;5029229;28;45667;-72
2023/07/06 01:12:44;;;;;;;;;5.33;5.00;;;;;22.57;64.57;100335.41;5017309;28;45321;-73
2023/07/06 01:15:09;;;;;;;;;3.33;3.00;;;;;22.66;64.49;100329.88;5016268;28;46295;-72
2023/07/06 01:18:07;;;;;;;;;1.00;1.00;;;;;22.72;65.00;100347.47;5032355;28;45384;-72
2023/07/06 01:20:44;;;;;;;;;1.00;1.00;;;;;22.64;65.76;100337.00;5016979;28;45466;-73
2023/07/06 01:23:37;;;;;;;;;0.67;0.33;;;;;22.67;65.36;100350.25;5018656;28;45666;-72
2023/07/06 01:26:37;;;;;;;;;2.00;2.00;;;;;22.66;66.07;100347.63;5003306;28;46435;-72
2023/07/06 01:29:20;;;;;;;;;1.33;1.00;;;;;22.69;65.85;100348.44;5016958;28;45477;-73
2023/07/06 01:31:55;;;;;;;;;3.00;2.00;;;;;22.71;66.27;100349.25;5018676;28;45553;-73
2023/07/06 01:34:30;;;;;;;;;1.00;1.00;;;;;22.70;65.83;100346.63;5010598;28;45526;-72
2023/07/06 01:37:04;;;;;;;;;1.00;1.00;;;;;22.64;65.97;100340.56;5016752;28;45444;-72
2023/07/06 01:39:30;;;;;;;;;2.00;2.00;;;;;22.71;65.76;100343.94;5020149;28;45515;-72
2023/07/06 01:42:07;;;;;;;;;2.00;1.00;;;;;22.74;65.75;100335.91;5020598;28;45564;-73
2023/07/06 01:44:34;;;;;;;;;2.00;2.00;;;;;22.69;65.56;100320.94;5021455;28;45618;-72
2023/07/06 01:47:01;;;;;;;;;0.00;0.00;;;;;22.79;65.70;100318.00;5023521;28;45493;-72
2023/07/06 01:49:27;;;;;;;;;2.00;2.00;;;;;22.80;65.44;100322.44;5015607;28;45265;-72
2023/07/06 01:52:10;;;;;;;;;1.67;1.00;;;;;22.79;65.91;100319.78;5016625;28;45427;-72
2023/07/06 01:54:51;;;;;;;;;2.00;1.33;;;;;22.80;65.55;100309.13;5030548;28;45406;-73
2023/07/06 01:57:26;;;;;;;;;2.33;2.00;;;;;22.87;65.47;100308.97;5036573;28;46092;-73
2023/07/06 01:59:55;;;;;;;;;2.00;1.00;;;;;22.83;65.00;100292.19;5017161;28;45431;-72
2023/07/06 02:02:22;;;;;;;;;2.67;2.00;;;;;22.94;65.17;100315.88;5016844;28;45375;-72
2023/07/06 02:04:47;;;;;;;;;2.00;2.00;;;;;22.93;64.99;100300.81;5031904;28;45570;-72
2023/07/06 02:07:16;;;;;;;;;2.00;2.00;;;;;22.92;65.29;100294.63;5016036;28;45895;-73
2023/07/06 02:09:46;;;;;;;;;2.00;2.00;;;;;22.90;64.78;100314.19;5016120;28;45650;-72
2023/07/06 02:12:12;;;;;;;;;2.00;2.00;;;;;22.92;64.71;100307.94;5032031;28;45489;-72
2023/07/06 02:14:42;;;;;;;;;2.00;2.00;;;;;22.89;64.92;100307.13;5017043;28;45426;-72
2023/07/06 02:17:09;;;;;;;;;3.00;2.33;;;;;22.87;64.98;100300.97;5023628;28;46485;-72
2023/07/06 02:19:35;;;;;;;;;3.67;2.67;;;;;22.89;64.71;100291.16;5016522;28;46370;-72
2023/07/06 02:22:03;;;;;;;;;5.00;3.00;;;;;22.96;64.67;100311.38;5016326;28;45476;-73
2023/07/06 02:24:30;;;;;;;;;3.33;2.67;;;;;22.98;64.84;100306.91;5016166;28;45493;-72
2023/07/06 02:26:56;;;;;;;;;4.00;4.00;;;;;22.95;64.72;100299.00;5016501;28;46038;-72
2023/07/06 02:29:22;;;;;;;;;7.00;4.00;;;;;22.93;64.60;100304.34;5030705;28;45541;-72
2023/07/06 02:31:49;;;;;;;;;2.00;2.00;;;;;22.87;64.98;100296.50;5016552;28;45470;-73
2023/07/06 02:34:21;;;;;;;;;4.33;4.00;;;;;22.89;64.37;100293.81;5016494;28;45435;-72
2023/07/06 02:36:47;;;;;;;;;5.00;5.00;;;;;22.84;63.81;100302.81;5016008;28;45393;-72
2023/07/06 02:39:12;;;;;;;;;7.00;5.00;;;;;22.72;63.31;100295.13;5016078;28;45213;-72
2023/07/06 02:41:38;;;;;;;;;8.00;7.00;;;;;22.84;63.54;100301.94;5014434;28;45412;-72
2023/07/06 02:44:04;;;;;;;;;7.33;6.67;;;;;22.84;62.66;100289.47;5015984;28;45368;-72
2023/07/06 02:46:30;;;;;;;;;11.33;7.00;;;;;22.88;62.73;100294.72;5016006;28;45669;-72
2023/07/06 02:48:55;;;;;;;;;10.00;9.00;;;;;22.81;62.62;100300.19;5019810;28;45542;-73
2023/07/06 02:51:22;;;;;;;;;8.67;6.33;;;;;22.89;62.83;100299.16;5019637;28;45293;-72
2023/07/06 02:53:48;;;;;;;;;7.00;7.00;;;;;22.93;62.15;100287.50;5020010;28;45392;-72
2023/07/06 02:56:13;;;;;;;;;7.00;6.67;;;;;22.95;61.78;100291.88;5019506;28;45980;-72
2023/07/06 02:58:38;;;;;;;;;7.67;7.67;;;;;22.92;61.75;100286.63;5019135;28;45461;-72
2023/07/06 03:01:04;;;;;;;;;12.33;10.00;;;;;22.78;61.63;100289.63;5019830;28;45358;-73
2023/07/06 03:03:30;;;;;;;;;8.33;8.00;;;;;22.63;62.24;100279.34;5035091;28;45642;-72
2023/07/06 03:05:56;;;;;;;;;9.67;8.33;;;;;22.61;62.26;100292.69;5022391;28;45839;-72
2023/07/06 03:08:21;;;;;;;;;11.33;9.00;;;;;22.60;62.55;100284.72;5038035;28;45267;-72
2023/07/06 03:10:47;;;;;;;;;9.67;8.00;;;;;22.54;62.83;100282.22;5034835;28;45443;-72
2023/07/06 03:13:14;;;;;;;;;8.00;6.33;;;;;22.54;63.20;100280.44;5039567;28;45299;-72
2023/07/06 03:15:41;;;;;;;;;9.00;7.67;;;;;22.39;63.00;100272.81;5038433;28;46279;-72
2023/07/06 03:18:08;;;;;;;;;7.33;6.00;;;;;22.39;63.38;100272.81;5038052;28;45699;-72
2023/07/06 03:20:37;;;;;;;;;8.33;7.00;;;;;22.34;62.85;100259.63;5038962;28;45477;-72
2023/07/06 03:23:03;;;;;;;;;5.67;5.33;;;;;22.31;62.96;100250.84;5028167;28;45515;-72
2023/07/06 03:25:29;;;;;;;;;10.33;9.00;;;;;22.33;62.77;100259.66;5033468;28;45705;-72
2023/07/06 03:27:56;;;;;;;;;9.00;9.00;;;;;22.30;62.24;100252.59;5018777;28;45517;-72
2023/07/06 03:30:28;;;;;;;;;8.00;6.67;;;;;22.23;62.40;100254.50;5033123;28;45482;-72
2023/07/06 03:32:54;;;;;;;;;10.67;9.67;;;;;22.30;62.25;100260.56;5019210;28;45350;-72
2023/07/06 03:35:22;;;;;;;;;8.00;8.00;;;;;22.24;62.39;100272.25;5026569;28;45976;-72
2023/07/06 03:37:48;;;;;;;;;7.33;6.67;;;;;22.26;62.91;100272.22;5025041;28;45513;-74
2023/07/06 03:40:14;;;;;;;;;4.33;3.67;;;;;22.22;62.32;100263.41;5022970;28;45451;-72
2023/07/06 03:42:45;;;;;;;;;9.00;8.00;;;;;22.20;62.63;100262.56;5017777;28;45497;-72
2023/07/06 03:45:13;;;;;;;;;8.33;7.33;;;;;22.32;62.20;100271.19;5026468;28;45445;-72
2023/07/06 03:47:42;;;;;;;;;12.67;9.33;;;;;22.29;62.45;100266.81;5019837;28;45343;-71
2023/07/06 03:50:09;;;;;;;;;10.33;9.00;;;;;22.21;63.78;100269.63;5018143;28;45305;-72
2023/07/06 03:52:39;;;;;;;;;6.33;6.33;;;;;22.22;64.30;100260.75;5023097;28;45604;-72
2023/07/06 03:55:12;;;;;;;;;6.00;6.00;;;;;22.20;65.08;100269.66;5027356;28;45431;-72
2023/07/06 03:57:39;;;;;;;;;7.67;5.67;;;;;22.12;65.02;100243.22;5022649;28;45755;-72
2023/07/06 04:00:24;;;;;;;;;9.00;6.00;;;;;22.30;64.90;100260.56;5008896;28;45530;-72
2023/07/06 04:02:52;;;;;;;;;6.00;5.00;;;;;22.36;65.15;100255.16;5014907;28;45436;-72
2023/07/06 04:05:22;;;;;;;;;5.33;5.00;;;;;22.40;65.31;100262.16;5022324;28;46009;-72
2023/07/06 04:07:52;;;;;;;;;5.67;5.33;;;;;22.47;65.12;100262.00;5037270;28;45603;-73
2023/07/06 04:10:22;;;;;;;;;5.00;4.67;;;;;22.48;64.83;100264.59;5023088;28;45434;-72
2023/07/06 04:12:48;;;;;;;;;6.67;6.67;;;;;22.40;65.33;100247.94;5031674;28;45328;-72
2023/07/06 04:15:17;;;;;;;;;5.00;5.00;;;;;22.44;64.94;100258.50;5017978;28;46317;-72
2023/07/06 04:17:52;;;;;;;;;6.33;5.67;;;;;22.54;64.46;100266.25;5018038;28;45494;-72
2023/07/06 04:20:21;;;;;;;;;7.67;6.00;;;;;22.48;64.56;100263.72;5018294;28;45391;-72
2023/07/06 04:22:48;;;;;;;;;6.00;5.00;;;;;22.34;65.29;100254.31;5022219;28;45615;-72
2023/07/06 04:25:18;;;;;;;;;9.00;8.67;;;;;22.36;65.68;100264.88;5021740;28;46070;-72
2023/07/06 04:27:44;;;;;;;;;5.33;4.67;;;;;22.27;66.10;100260.66;5020523;28;45577;-72
2023/07/06 04:30:11;;;;;;;;;6.67;6.00;;;;;22.31;65.58;100262.34;5029369;28;45552;-72
2023/07/06 04:32:36;;;;;;;;;6.00;5.00;;;;;22.38;65.86;100263.06;5016123;28;45460;-73
2023/07/06 04:35:03;;;;;;;;;5.00;3.67;;;;;22.40;65.84;100261.25;5016710;28;45765;-72
2023/07/06 04:37:29;;;;;;;;;7.00;5.00;;;;;22.39;65.59;100255.06;5033374;28;45461;-72
2023/07/06 04:39:54;;;;;;;;;5.67;5.00;;;;;22.35;65.70;100252.50;5024650;28;45592;-72
2023/07/06 04:42:20;;;;;;;;;5.00;5.00;;;;;22.31;65.74;100248.16;5025618;28;45515;-72
2023/07/06 04:44:47;;;;;;;;;8.00;7.67;;;;;22.03;65.82;100220.38;5017017;28;46229;-72
2023/07/06 04:47:13;;;;;;;;;8.00;6.67;;;;;22.15;66.36;100260.91;5029087;28;45525;-73
2023/07/06 04:49:38;;;;;;;;;7.33;7.00;;;;;21.97;65.67;100247.09;5024452;28;47077;-72
2023/07/06 04:52:04;;;;;;;;;7.33;6.33;;;;;22.02;65.30;100250.56;5031940;28;45442;-73
2023/07/06 04:54:30;;;;;;;;;5.00;5.00;;;;;21.97;65.85;100248.91;5021960;28;45433;-72
2023/07/06 04:56:57;;;;;;;;;7.00;7.00;;;;;21.89;66.26;100259.69;5019395;28;45453;-72
2023/07/06 04:59:22;;;;;;;;;8.33;7.00;;;;;21.95;65.59;100267.53;5028338;28;45326;-72
2023/07/06 05:01:51;;;;;;;;;7.33;6.67;;;;;21.89;65.82;100251.72;5017143;28;45585;-72
2023/07/06 05:04:17;;;;;;;;;7.67;7.00;;;;;21.93;65.58;100256.06;5007036;28;46890;-72
2023/07/06 05:06:43;;;;;;;;;9.33;7.67;;;;;21.84;66.36;100261.56;5008955;28;45383;-72
2023/07/06 05:09:08;;;;;;;;;9.00;8.00;;;;;21.89;66.04;100265.00;5016173;28;47896;-71
2023/07/06 05:11:34;;;;;;;;;7.00;6.67;;;;;21.94;66.11;100263.13;5013970;28;45843;-73
2023/07/06 05:13:59;;;;;;;;;9.00;7.67;;;;;21.97;66.04;100256.88;5025845;28;45656;-72
2023/07/06 05:16:25;;;;;;;;;5.33;5.33;;;;;22.09;65.52;100263.72;5033019;28;45393;-72
2023/07/06 05:18:51;;;;;;;;;7.33;7.00;;;;;22.21;65.40;100258.13;5035559;28;45455;-72
2023/07/06 05:21:17;;;;;;;;;7.33;5.67;;;;;22.33;65.02;100271.16;5029694;28;45539;-72
2023/07/06 05:23:42;;;;;;;;;6.67;6.67;;;;;22.33;64.69;100262.31;5016744;28;45783;-73
2023/07/06 05:26:08;;;;;;;;;9.67;8.33;;;;;22.40;64.50;100266.56;4995869;28;45409;-72
2023/07/06 05:28:34;;;;;;;;;13.33;12.67;;;;;22.41;63.06;100260.34;5012254;28;45328;-73
2023/07/06 05:31:02;;;;;;;;;10.33;9.00;;;;;22.52;63.48;100262.75;5016543;28;45506;-73
2023/07/06 05:33:28;;;;;;;;;13.67;11.00;;;;;22.52;62.58;100258.31;5016718;28;45399;-73
2023/07/06 05:35:53;;;;;;;;;11.33;11.00;;;;;22.55;62.99;100262.69;5015177;28;45511;-72
2023/07/06 05:38:20;;;;;;;;;15.00;13.00;;;;;22.57;62.84;100242.22;5016561;28;45617;-73
2023/07/06 05:40:45;;;;;;;;;10.00;9.33;;;;;22.59;62.29;100245.72;5027290;28;45675;-73
2023/07/06 05:43:11;;;;;;;;;13.00;11.00;;;;;22.54;62.59;100247.63;5031945;28;45507;-73
2023/07/06 05:45:37;;;;;;;;;14.00;12.33;;;;;22.76;62.14;100254.19;5016858;28;45553;-73
2023/07/06 05:48:03;;;;;;;;;12.67;11.33;;;;;22.83;61.90;100255.75;5016401;28;45493;-72
2023/07/06 05:50:28;;;;;;;;;14.33;13.00;;;;;22.96;61.79;100261.66;5022607;28;45429;-72
2023/07/06 05:52:54;;;;;;;;;11.33;10.67;;;;;23.12;61.33;100255.94;5010945;28;45976;-73
2023/07/06 05:55:19;;;;;;;;;11.00;11.00;;;;;23.10;61.43;100255.13;5017439;28;45548;-73
2023/07/06 05:57:46;;;;;;;;;15.67;12.67;;;;;23.10;60.77;100258.69;5035638;28;45410;-73
2023/07/06 06:00:13;;;;;;;;;8.67;7.67;;;;;23.08;60.77;100263.16;5035938;28;45364;-73
2023/07/06 06:02:39;;;;;;;;;12.00;10.00;;;;;22.92;61.47;100253.78;5016228;28;45486;-73
2023/07/06 06:05:06;;;;;;;;;12.00;11.33;;;;;22.84;61.61;100260.19;5031342;28;45257;-73
2023/07/06 06:07:33;;;;;;;;;12.67;11.33;;;;;22.92;61.35;100253.78;5016153;28;45299;-73
2023/07/06 06:09:59;;;;;;;;;10.33;9.67;;;;;22.94;61.34;100259.94;5023339;28;45564;-73
2023/07/06 06:12:26;;;;;;;;;14.33;9.67;;;;;22.94;61.70;100251.94;5031756;28;46432;-73
2023/07/06 06:14:52;;;;;;;;;12.33;10.33;;;;;23.27;61.14;100252.88;5013952;28;45447;-73
2023/07/06 06:17:19;;;;;;;;;10.00;9.00;;;;;24.48;59.40;100253.78;5022083;28;45646;-73
2023/07/06 06:19:45;;;;;;;;;8.67;7.33;;;;;26.16;53.96;100256.84;5035544;28;45353;-73
2023/07/06 06:22:12;;;;;;;;;11.00;9.67;;;;;26.69;52.74;100247.56;5035470;28;46113;-73
2023/07/06 06:24:37;;;;;;;;;9.33;9.33;;;;;27.30;51.45;100257.53;5018537;28;45895;-73
2023/07/06 06:27:04;;;;;;;;;13.00;11.00;;;;;29.02;48.96;100248.50;5031595;28;45582;-73
2023/07/06 06:29:30;;;;;;;;;12.67;10.00;;;;;30.53;45.26;100245.75;5017902;28;45541;-73
2023/07/06 06:31:56;;;;;;;;;14.00;12.67;;;;;31.99;42.52;100245.00;5002118;28;45548;-73
2023/07/06 06:34:23;;;;;;;;;13.00;11.67;;;;;32.75;40.90;100242.81;5018299;28;45608;-72
2023/07/06 06:36:49;;;;;;;;;11.00;10.67;;;;;33.70;38.37;100238.94;5028403;28;45384;-73
2023/07/06 06:39:14;;;;;;;;;11.33;10.33;;;;;34.72;38.03;100258.66;5019367;28;45343;-72
2023/07/06 06:41:41;;;;;;;;;10.33;10.33;;;;;35.64;34.52;100255.09;5024446;28;45467;-78
2023/07/06 06:44:07;;;;;;;;;10.00;10.00;;;;;36.27;33.50;100248.31;5018439;28;46247;-72
2023/07/06 06:46:32;;;;;;;;;11.33;11.33;;;;;36.88;33.02;100258.66;5004811;28;45389;-72
2023/07/06 06:48:58;;;;;;;;;9.67;8.67;;;;;37.46;31.84;100252.78;5017949;28;45842;-72
2023/07/06 06:51:24;;;;;;;;;9.00;9.00;;;;;36.94;31.04;100250.81;5032453;28;45506;-72
2023/07/06 06:53:53;;;;;;;;;9.67;9.33;;;;;37.53;31.10;100243.94;5029578;28;47030;-71
2023/07/06 06:56:19;;;;;;;;;9.67;9.00;;;;;38.31;32.39;100246.13;5025291;28;45501;-72
2023/07/06 06:58:45;;;;;;;;;10.00;9.67;;;;;39.37;28.93;100250.72;5013340;28;45486;-72
2023/07/06 07:01:10;;;;;;;;;13.33;11.67;;;;;39.51;28.14;100235.75;5012133;28;45394;-72
2023/07/06 07:03:36;;;;;;;;;13.00;12.33;;;;;39.99;28.40;100243.94;5034056;28;45510;-71
2023/07/06 07:06:03;;;;;;;;;9.33;9.33;;;;;40.29;27.49;100242.75;5022740;28;45272;-71
2023/07/06 07:08:29;;;;;;;;;12.33;11.33;;;;;40.49;27.54;100247.13;5038941;28;45414;-72
2023/07/06 07:10:58;;;;;;;;;9.67;9.00;;;;;41.28;27.09;100241.84;5025897;28;45437;-72
2023/07/06 07:13:27;;;;;;;;;10.67;10.67;;;;;41.83;25.93;100241.50;5027232;28;45482;-72
2023/07/06 07:15:53;;;;;;;;;9.33;8.67;;;;;41.82;25.65;100236.16;5019181;28;45322;-72
2023/07/06 07:18:21;;;;;;;;;10.33;9.00;;;;;42.18;24.80;100244.22;5035599;28;45439;-72
2023/07/06 07:20:51;;;;;;;;;10.00;9.67;;;;;42.38;24.82;100239.28;5034378;28;45413;-72
2023/07/06 07:23:21;;;;;;;;;9.67;9.67;;;;;42.39;24.34;100236.38;5036541;28;45491;-72
2023/07/06 07:25:48;;;;;;;;;10.00;9.00;;;;;42.54;24.71;100249.47;4998922;28;45451;-72
2023/07/06 07:28:16;;;;;;;;;11.67;10.00;;;;;42.78;23.90;100244.00;4999067;28;45514;-73
2023/07/06 07:30:43;;;;;;;;;11.00;9.33;;;;;42.86;24.23;100233.06;5014332;28;45440;-72
2023/07/06 07:33:09;;;;;;;;;11.00;10.00;;;;;43.34;24.90;100222.22;5014648;28;45534;-73
2023/07/06 07:35:36;;;;;;;;;10.33;10.33;;;;;43.55;23.49;100234.50;4997919;28;45373;-72
2023/07/06 07:38:02;;;;;;;;;10.67;10.67;;;;;43.84;22.55;100228.44;4998636;28;45618;-72
2023/07/06 07:40:29;;;;;;;;;12.33;10.33;;;;;43.68;23.17;100207.34;4999089;28;45344;-78
2023/07/06 07:42:55;;;;;;;;;11.00;10.33;;;;;44.15;22.34;100225.69;5010174;28;45462;-71
2023/07/06 07:45:21;;;;;;;;;10.00;9.33;;;;;44.37;22.53;100220.41;5018140;28;45331;-72
2023/07/06 07:47:47;;;;;;;;;11.67;10.67;;;;;44.38;22.99;100216.63;5018281;28;45253;-72
2023/07/06 07:50:13;;;;;;;;;11.00;10.33;;;;;44.99;22.17;100214.81;5017859;28;45408;-72
2023/07/06 07:52:39;;;;;;;;;14.00;13.00;;;;;45.02;22.32;100208.06;5017692;28;45510;-72
2023/07/06 07:55:06;;;;;;;;;13.33;12.33;;;;;45.15;21.68;100202.75;5018482;28;45423;-71
2023/07/06 07:57:32;;;;;;;;;10.33;10.00;;;;;45.11;22.00;100201.41;5017266;28;45840;-72
2023/07/06 07:59:57;;;;;;;;;10.00;10.00;;;;;45.27;22.14;100203.19;5017536;28;45535;-71
2023/07/06 08:02:23;;;;;;;;;11.67;10.33;;;;;45.68;21.30;100199.94;5008344;28;45423;-72
2023/07/06 08:04:49;;;;;;;;;12.33;12.00;;;;;46.06;21.11;100193.44;5007660;28;45512;-73
2023/07/06 08:07:14;;;;;;;;;11.67;11.33;;;;;45.99;22.23;100191.44;5002721;28;45581;-72
2023/07/06 08:09:40;;;;;;;;;10.67;10.67;;;;;46.20;21.55;100198.06;4998916;28;45226;-72
2023/07/06 08:12:06;;;;;;;;;10.00;9.00;;;;;46.92;20.62;100193.47;5026821;28;45589;-72
2023/07/06 08:14:38;;;;;;;;;12.33;11.67;;;;;47.38;20.63;100193.81;5034218;28;47098;-71
2023/07/06 08:17:05;;;;;;;;;10.67;10.00;;;;;47.53;21.30;100190.06;5017937;28;45406;-71
2023/07/06 08:19:36;;;;;;;;;9.00;9.00;;;;;48.12;19.88;100185.88;5028240;28;45968;-71
2023/07/06 08:22:03;;;;;;;;;9.00;9.00;;;;;48.37;18.40;100181.50;5021161;28;45508;-71
2023/07/06 08:24:29;;;;;;;;;10.33;10.00;;;;;48.48;19.40;100184.69;5019179;28;45565;-71
2023/07/06 08:26:55;;;;;;;;;11.00;11.00;;;;;48.75;19.21;100189.22;5018349;28;45513;-72
2023/07/06 08:29:21;;;;;;;;;10.00;10.00;;;;;49.11;19.03;100170.44;5018063;28;45429;-71
2023/07/06 08:31:48;;;;;;;;;9.00;9.00;;;;;49.17;19.62;100177.91;5012236;28;45671;-71
2023/07/06 08:34:16;;;;;;;;;11.00;11.00;;;;;48.91;18.57;100165.75;5015303;28;45728;-71
2023/07/06 08:36:43;;;;;;;;;10.00;10.00;;;;;48.52;19.31;100178.50;5015526;28;45851;-71
2023/07/06 08:39:09;;;;;;;;;10.00;9.67;;;;;48.80;19.79;100179.41;5012924;28;46524;-71
2023/07/06 08:41:42;;;;;;;;;4.00;4.00;;;;;49.18;19.00;100172.09;5018191;28;45876;-70
2023/07/06 08:44:12;;;;;;;;;9.67;9.67;;;;;48.80;19.58;100169.16;5002963;28;45491;-73
2023/07/06 08:46:45;;;;;;;;;9.67;9.67;;;;;48.83;18.73;100170.66;5016232;28;45636;-73
2023/07/06 08:49:32;;;;;;;;;11.00;10.00;;;;;48.83;19.25;100178.97;5015893;28;46398;-73
2023/07/06 08:52:05;;;;;;;;;10.33;8.33;;;;;49.31;18.35;100171.25;5007606;28;45479;-73
2023/07/06 08:54:39;;;;;;;;;9.33;8.67;;;;;49.45;18.58;100160.97;5021005;28;45465;-73
2023/07/06 08:57:26;;;;;;;;;10.33;9.33;;;;;49.08;18.44;100160.63;5032411;28;45621;-73
2023/07/06 08:59:53;;;;;;;;;8.67;8.67;;;;;49.08;18.87;100165.31;5014253;28;46096;-73
2023/07/06 09:02:29;;;;;;;;;9.33;9.00;;;;;48.61;18.84;100162.53;5033468;28;45532;-73
2023/07/06 09:05:00;;;;;;;;;7.67;6.67;;;;;47.92;19.71;100156.22;5035096;28;45450;-73
2023/07/06 09:07:39;;;;;;;;;7.33;6.67;;;;;47.78;19.69;100149.75;5017710;28;45428;-73
2023/07/06 09:10:14;;;;;;;;;20.00;16.67;;;;;46.80;20.61;100148.97;5015540;28;45459;-73
2023/07/06 09:12:40;;;;;;;;;8.33;8.33;;;;;46.34;21.33;100147.44;5024006;28;45541;-73
2023/07/06 09:15:10;;;;;;;;;6.00;6.00;;;;;45.62;21.95;100145.50;5024082;28;45453;-73
2023/07/06 09:17:46;;;;;;;;;7.33;6.33;;;;;44.93;22.53;100134.75;5034826;28;45458;-73
2023/07/06 09:20:14;;;;;;;;;6.00;5.67;;;;;44.36;22.57;100136.94;5017164;28;45556;-73
2023/07/06 09:22:44;;;;;;;;;7.67;6.67;;;;;43.91;23.44;100122.09;5014619;28;45594;-73
2023/07/06 09:25:18;;;;;;;;;5.00;5.00;;;;;42.87;24.01;100118.53;5015100;28;45483;-73
2023/07/06 09:27:49;;;;;;;;;6.67;6.00;;;;;40.91;26.72;100122.41;5020266;28;45407;-73
2023/07/06 09:30:33;;;;;;;;;7.67;6.00;;;;;39.52;27.99;100127.31;5013707;28;45525;-73
2023/07/06 09:33:24;;;;;;;;;4.67;4.67;;;;;39.34;28.82;100129.97;5016632;28;45704;-73
2023/07/06 09:35:52;;;;;;;;;7.00;6.67;;;;;38.82;29.41;100118.56;5016454;28;45490;-73
2023/07/06 09:38:19;;;;;;;;;9.00;9.00;;;;;38.98;29.66;100121.59;5018038;28;45463;-73
2023/07/06 09:40:46;;;;;;;;;4.00;4.00;;;;;39.01;29.09;100109.50;5029766;28;46302;-73
2023/07/06 09:43:24;;;;;;;;;4.67;4.67;;;;;39.23;28.33;100117.31;5016473;28;45382;-72
2023/07/06 09:45:51;;;;;;;;;5.00;5.00;;;;;39.62;27.97;100103.50;5015122;28;45613;-72
2023/07/06 09:48:37;;;;;;;;;4.00;4.00;;;;;40.05;27.86;100106.56;4997064;28;45786;-73
2023/07/06 09:51:07;;;;;;;;;5.00;4.00;;;;;40.74;27.11;100096.72;5008959;28;46157;-72
2023/07/06 09:53:41;;;;;;;;;5.00;5.00;;;;;40.36;28.10;100094.22;5014877;28;46956;-73
2023/07/06 09:56:13;;;;;;;;;4.33;4.33;;;;;41.16;27.12;100109.69;5025104;28;45502;-73
2023/07/06 09:58:39;;;;;;;;;4.00;4.00;;;;;41.34;26.28;100107.72;5008173;28;45674;-73
2023/07/06 10:01:35;;;;;;;;;2.33;2.33;;;;;41.19;26.11;100103.03;5010473;28;46796;-72
2023/07/06 10:04:22;;;;;;;;;5.33;5.00;;;;;40.71;25.59;100080.63;5018060;28;45605;-72
2023/07/06 10:07:18;;;;;;;;;4.33;4.33;;;;;40.04;27.39;100105.69;5003390;28;45653;-73
2023/07/06 10:09:58;;;;;;;;;4.00;4.00;;;;;39.88;27.01;100097.34;5003003;28;45364;-72
2023/07/06 10:12:32;;;;;;;;;3.67;3.67;;;;;39.63;28.16;100097.00;5021431;28;46002;-72
2023/07/06 10:15:05;;;;;;;;;3.67;3.67;;;;;38.99;28.09;100080.47;5022160;28;45501;-72
2023/07/06 10:17:41;;;;;;;;;4.67;4.00;;;;;38.46;29.31;100091.91;5020300;28;45630;-72
2023/07/06 10:20:12;;;;;;;;;5.00;5.00;;;;;38.00;29.50;100096.16;5022186;28;45221;-72
2023/07/06 10:23:16;;;;;;;;;5.67;5.67;;;;;37.51;30.19;100095.22;5022113;28;46577;-72
2023/07/06 10:25:42;;;;;;;;;6.67;6.67;;;;;37.30;31.32;100095.25;5021977;28;45557;-72
2023/07/06 10:28:17;;;;;;;;;6.33;4.67;;;;;37.12;31.21;100085.00;5022336;28;45549;-73
2023/07/06 10:30:46;;;;;;;;;5.33;4.33;;;;;37.54;31.15;100089.47;5036350;28;45543;-72
2023/07/06 10:33:23;;;;;;;;;4.67;4.67;;;;;37.48;31.08;100085.44;5009618;28;45460;-72
2023/07/06 10:35:50;;;;;;;;;7.33;5.33;;;;;37.58;31.41;100085.44;5032249;28;45612;-73
2023/07/06 10:38:16;;;;;;;;;5.67;5.00;;;;;37.30;31.48;100084.38;5035756;28;45535;-72
2023/07/06 10:40:42;;;;;;;;;6.00;5.67;;;;;36.75;32.15;100076.47;5039907;28;45397;-72
2023/07/06 10:43:13;;;;;;;;;7.67;7.67;;;;;36.53;32.75;100077.44;5021724;28;46128;-72
2023/07/06 10:45:49;;;;;;;;;4.00;4.00;;;;;36.95;31.72;100078.31;5032609;28;45631;-72
2023/07/06 10:48:30;;;;;;;;;5.33;4.67;;;;;36.80;31.77;100068.78;5026935;28;45513;-72
2023/07/06 10:51:04;;;;;;;;;4.33;4.00;;;;;36.60;32.17;100060.47;5022654;28;45356;-72
2023/07/06 10:53:36;;;;;;;;;5.00;4.33;;;;;36.70;32.20;100085.06;5036791;28;47777;-72
2023/07/06 10:56:02;;;;;;;;;5.00;5.00;;;;;36.55;32.21;100079.06;5028069;28;45550;-72
2023/07/06 10:58:33;;;;;;;;;4.00;4.00;;;;;36.46;31.90;100079.84;5032228;28;45343;-72
2023/07/06 11:01:09;;;;;;;;;4.00;4.00;;;;;35.86;32.92;100081.34;5041947;28;45562;-73
2023/07/06 11:03:36;;;;;;;;;5.00;5.00;;;;;35.58;33.74;100081.72;5040997;28;45540;-72
2023/07/06 11:06:13;;;;;;;;;5.00;4.00;;;;;35.98;33.26;100069.41;5024956;28;45575;-73
2023/07/06 11:09:09;;;;;;;;;5.33;5.33;;;;;36.07;33.36;100073.22;5021459;28;45459;-73
2023/07/06 11:12:03;;;;;;;;;5.33;5.00;;;;;35.65;34.30;100063.94;5033927;28;45486;-73
2023/07/06 11:14:33;;;;;;;;;6.00;5.33;;;;;35.41;33.60;100068.66;5032572;28;45568;-73
2023/07/06 11:17:04;;;;;;;;;5.00;5.00;;;;;35.04;34.64;100058.91;5023767;28;45642;-73
2023/07/06 11:20:03;;;;;;;;;6.33;5.00;;;;;34.22;35.97;100071.66;5013825;28;45324;-73
2023/07/06 11:22:30;;;;;;;;;5.00;5.00;;;;;33.79;36.96;100055.94;5014771;28;45464;-72
2023/07/06 11:25:03;;;;;;;;;7.33;6.67;;;;;33.31;38.02;100059.41;5022785;28;46127;-73
2023/07/06 11:27:37;;;;;;;;;5.67;5.67;;;;;33.11;37.62;100060.88;5028281;28;45418;-73
2023/07/06 11:30:31;;;;;;;;;5.33;5.33;;;;;32.98;38.16;100063.53;5032457;28;45640;-72
2023/07/06 11:33:20;;;;;;;;;7.33;5.33;;;;;32.65;39.41;100066.78;5036316;28;45534;-73